KELY/ELY METAR and TAF weather

Enter ICAO airport designator
Station Type Date Time Source
KELY METAR 2022/01/26 18:53 UTC NOAA

KELY 261853Z AUTO 21003KT 10SM CLR M03/M11 A3024 RMK AO2 SLP289 T10331111


Station Type Date Time Source
KELY Decoded METAR 2022/01/26 18:53 UTC NOAA

ELY AIRPORT (YELLAND FIELD), NV, United States (KELY) 39-18N 114-51W 1906M
Jan 26, 2022 - 01:53 PM EST / 2022.01.26 1853 UTC
Wind: from the SSW (210 degrees) at 3 MPH (3 KT):0
Visibility: 10 mile(s):0
Sky conditions: clear
Temperature: 26.1 F (-3.3 C)
Dew Point: 12.0 F (-11.1 C)
Relative Humidity: 54%
Pressure (altimeter): 30.24 in. Hg (1024 hPa)
ob: KELY 261853Z AUTO 21003KT 10SM CLR M03/M11 A3024 RMK AO2 SLP289 T10331111
cycle: 19

Station Type Date Time Source
KELY TAF 2022/01/26 18:22 UTC NOAA

TAF KELY 261720Z 2618/2718 VRB05KT P6SM FEW200
FM270100 17014KT P6SM FEW120 SCT180
FM271730 01009KT P6SM SKC

Example: see airport list